Omer, Michigan
Current Conditions -  °F | °C
As of 2:54 AM on Monday 24 Nov 2014 (Local Time) from KIKW Reporting Station
Drizzle Drizzle  
Wind Chill: 51°   Ceiling: 700
Heat Index: 51°   Visibility: 7mi
Dew Point: 50°   Wind: 6mph
Humidity: 97%   Direction: 160°SSE
Pressure: 29.01"   Gusts: NA
Location:  44.05°N, 83.85°W
Report Text: KIKW 240754Z AUTO 16005KT 7SM DZ OVC007 11/10 A2901 RMK AO2 P0004 T01050100
Loading
Personal Weather Stations






























Interactive Weather Map New forecast layout! Learn more

10-Day Weather Forecast

Advertisements
Track Severe Weather on mobile